Terminal Aerodrome Forecast
Issued by NWS Boston, MA

Home | Current Version | Previous Version | Text Only | Print | Product List | Glossary On
Versions: 1 2 3 4 5 6 7 8 9 10 11 12 13 14 15 16 17 18 19 20 21 22 23 24 25 26 27 28 29 30 31 32 33 34 35 36 37 38 39 40 41 42 43
000
FTUS41 KBOX 252012 AAA
TAFPVD
TAF AMD
KPVD 252012Z 2520/2618 04014KT P6SM -SHRA FEW007 OVC010
     FM252200 04013KT 4SM -SHRA BR OVC007
     FM260000 06012KT 2SM SHRA BR OVC005
     FM260600 09011KT 1SM -SHRA BR OVC003 WS020/14035KT
     FM261200 08009KT 3SM -SHRA BR OVC008 WS020/15040KT
     FM261400 09007KT 3SM -SHRA BR OVC008=

USA.gov is the U.S. government's official web portal to all federal, state and local government web resources and services.